Assunta, Argentina
Current Conditions -  °F | °C
As of 4:00 AM on Wednesday 26 Nov 2014 (Local Time) from SAOC Reporting Station
Drizzle Drizzle  
Wind Chill: 61°   Ceiling: 1000
Heat Index: 61°   Visibility: 3mi
Dew Point: 50°   Wind: 2mph
Humidity: 68%   Direction: 270°W
Pressure: 29.94"   Gusts: NA
Location:  33.52°S, 63.21°W
Report Text: SAOC 260700Z 27002KT 5000 DZ BKN010 BKN05016/10 Q1014
Loading
Personal Weather Stations






























Interactive Weather Map New forecast layout! Learn more

10-Day Weather Forecast

Advertisements
Track Severe Weather on mobile